EDDG/FMO METAR and TAF weather

Enter ICAO airport designator
Station Type Date Time Source
EDDG METAR 2020/09/27 03:20 UTC NOAA

EDDG 270320Z 11005KT 050V210 4500 BR BKN004 10/09 Q0996 TEMPO 6000 BKN006


Station Type Date Time Source
EDDG Decoded METAR 2020/09/27 03:20 UTC NOAA

Muenster / Osnabrueck, Germany (EDDG) 52-08N 007-42E 53M
Sep 26, 2020 - 11:20 PM EDT / 2020.09.27 0320 UTC
Wind: from the ESE (110 degrees) at 6 MPH (5 KT) (direction variable):0
Visibility: 2 mile(s):0
Sky conditions: mostly cloudy
Weather: mist
Temperature: 50 F (10 C)
Dew Point: 48 F (9 C)
Relative Humidity: 93%
Pressure (altimeter): 29.41 in. Hg (0996 hPa)
ob: EDDG 270320Z 11005KT 050V210 4500 BR BKN004 10/09 Q0996 TEMPO 6000 BKN006
cycle: 3

Station Type Date Time Source
EDDG TAF 2020/09/26 21:36 UTC NOAA

TAF
AMD EDDG 262120Z 2621/2718 27009KT 6000 RA BKN010
TEMPO 2621/2624 3000 -RADZ BKN004
BECMG 2621/2624 21007KT NSW
TEMPO 2700/2707 15005KT 2000 -DZRA BR OVC004
BECMG 2704/2707 12006KT
TEMPO 2707/2710 4000 -RADZ BKN007
BECMG 2710/2712 SCT015 BKN030
BECMG 2715/2718 VRB03KT

Example: see airport list